Time;durP1;ratioP1;P1;durP2;ratioP2;P2;SDS_P1;SDS_P2;PMS_P1;PMS_P2;Temp;Humidity;BMP_temperature;BMP_pressure;BME280_temperature;BME280_humidity;BME280_pressure;Samples;Min_cycle;Max_cycle;Signal;HPM_P1;HPM_P2
2024/04/11 00:00:33;;;;;;;17.90;14.50;;;;;;;15.83;72.55;100897.90;86892;271;136391;-70
2024/04/11 00:02:34;;;;;;;16.40;13.20;;;;;;;15.81;72.64;100892.28;87041;281;22550;-70
2024/04/11 00:04:35;;;;;;;14.50;13.10;;;;;;;15.80;72.67;100898.58;86917;280;137155;-70
2024/04/11 00:06:38;;;;;;;16.30;13.00;;;;;;;15.78;73.01;100896.85;86654;281;25195;-68
2024/04/11 00:08:39;;;;;;;14.80;12.40;;;;;;;15.76;72.85;100900.61;86764;275;137663;-70
2024/04/11 00:10:40;;;;;;;15.10;12.90;;;;;;;15.74;72.70;100898.86;86994;267;25341;-68
2024/04/11 00:12:41;;;;;;;14.90;13.30;;;;;;;15.73;73.60;100897.77;86813;272;136564;-76
2024/04/11 00:14:44;;;;;;;16.60;12.80;;;;;;;15.73;73.08;100900.80;86976;279;22649;-72
2024/04/11 00:16:45;;;;;;;13.80;12.30;;;;;;;15.70;72.67;100899.46;87012;275;136280;-77
2024/04/11 00:18:46;;;;;;;14.50;13.00;;;;;;;15.68;73.99;100901.48;86918;275;22557;-71
2024/04/11 00:20:46;;;;;;;14.60;12.30;;;;;;;15.63;75.21;100903.40;86949;274;137070;-71
2024/04/11 00:22:48;;;;;;;14.30;12.70;;;;;;;15.56;75.92;100902.41;86897;276;24004;-71
2024/04/11 00:24:48;;;;;;;13.90;12.50;;;;;;;15.50;76.61;100905.70;86832;275;136278;-75
2024/04/11 00:26:49;;;;;;;14.20;12.20;;;;;;;15.41;77.53;100902.48;87091;281;22566;-76
2024/04/11 00:28:50;;;;;;;15.30;12.90;;;;;;;15.34;77.86;100901.30;87022;274;135987;-71
2024/04/11 00:30:54;;;;;;;15.00;13.00;;;;;;;15.26;77.65;100905.79;87031;269;24007;-70
2024/04/11 00:32:55;;;;;;;14.40;12.80;;;;;;;15.19;78.00;100904.66;86988;278;136390;-71
2024/04/11 00:34:57;;;;;;;17.60;13.60;;;;;;;15.15;77.00;100908.27;87083;270;22648;-73
2024/04/11 00:36:59;;;;;;;16.80;13.90;;;;;;;15.14;76.15;100906.64;87149;269;135680;-73
2024/04/11 00:38:59;;;;;;;14.50;13.10;;;;;;;15.14;76.19;100909.45;87442;281;23725;-71
2024/04/11 00:41:00;;;;;;;15.30;13.50;;;;;;;15.16;76.36;100909.91;87007;273;136760;-71
2024/04/11 00:43:02;;;;;;;16.00;14.10;;;;;;;15.17;76.00;100910.40;87057;269;22593;-73
2024/04/11 00:45:06;;;;;;;15.00;12.90;;;;;;;15.18;75.88;100912.09;86927;281;136368;-73
2024/04/11 00:47:09;;;;;;;15.30;13.80;;;;;;;15.16;76.14;100909.58;87107;272;22685;-71
2024/04/11 00:49:10;;;;;;;18.40;13.30;;;;;;;15.15;76.26;100911.70;87021;274;136160;-70
2024/04/11 00:51:11;;;;;;;14.80;13.40;;;;;;;15.14;76.15;100914.27;87074;278;22695;-70
2024/04/11 00:53:12;;;;;;;15.00;13.30;;;;;;;15.14;77.48;100913.29;86938;281;136290;-68
2024/04/11 00:55:14;;;;;;;16.40;13.00;;;;;;;15.10;77.54;100913.91;87125;273;22570;-74
2024/04/11 00:57:16;;;;;;;15.20;13.60;;;;;;;15.07;78.47;100912.70;87318;265;136033;-71
2024/04/11 00:59:18;;;;;;;16.00;13.40;;;;;;;15.01;79.39;100914.96;87352;271;24110;-73
2024/04/11 01:01:19;;;;;;;14.20;12.60;;;;;;;14.97;79.47;100913.73;86871;270;137233;-72
2024/04/11 01:03:21;;;;;;;16.80;13.60;;;;;;;14.99;80.07;100914.92;87040;270;23631;-70
2024/04/11 01:05:22;;;;;;;13.80;12.60;;;;;;;14.95;79.36;100917.05;87001;264;136896;-74
2024/04/11 01:07:23;;;;;;;16.00;13.10;;;;;;;14.92;79.80;100917.63;87093;271;24145;-76
2024/04/11 01:09:24;;;;;;;16.00;12.70;;;;;;;14.90;79.35;100918.54;87010;273;136375;-71
2024/04/11 01:11:25;;;;;;;13.80;12.50;;;;;;;14.89;79.47;100917.25;87062;270;25198;-73
2024/04/11 01:13:26;;;;;;;15.90;14.00;;;;;;;14.87;79.41;100917.13;86912;281;136362;-74
2024/04/11 01:15:27;;;;;;;16.70;13.10;;;;;;;14.84;81.16;100919.73;87107;272;25208;-73
2024/04/11 01:17:27;;;;;;;15.20;13.70;;;;;;;14.78;82.23;100920.44;87018;272;136206;-74
2024/04/11 01:19:28;;;;;;;14.90;13.40;;;;;;;14.73;81.59;100926.12;86956;269;22781;-78
2024/04/11 01:21:29;;;;;;;26.20;13.50;;;;;;;14.69;82.27;100924.88;87025;273;136827;-81
2024/04/11 01:23:29;;;;;;;14.60;12.90;;;;;;;14.66;83.17;100926.42;87143;272;25226;-72
2024/04/11 01:25:30;;;;;;;14.10;12.70;;;;;;;14.63;83.84;100923.81;87004;273;138214;-72
2024/04/11 01:27:31;;;;;;;17.40;13.60;;;;;;;14.57;84.00;100925.10;87058;273;22583;-71
2024/04/11 01:29:32;;;;;;;14.10;12.70;;;;;;;14.54;83.66;100920.16;87050;272;137765;-70
2024/04/11 01:31:33;;;;;;;15.00;13.60;;;;;;;14.54;83.33;100917.45;87084;273;24014;-72
2024/04/11 01:33:34;;;;;;;14.70;13.30;;;;;;;14.55;83.41;100920.08;87012;268;136226;-72
2024/04/11 01:35:38;;;;;;;14.50;13.10;;;;;;;14.55;82.81;100916.29;86986;281;22604;-72
2024/04/11 01:37:39;;;;;;;18.70;14.40;;;;;;;14.54;82.01;100917.28;87129;281;136326;-71
2024/04/11 01:39:40;;;;;;;14.70;12.80;;;;;;;14.54;81.59;100915.30;87123;273;22549;-71
2024/04/11 01:41:41;;;;;;;14.10;12.80;;;;;;;14.55;82.23;100916.44;86942;280;136178;-74
2024/04/11 01:43:42;;;;;;;15.90;14.30;;;;;;;14.54;81.83;100916.27;87047;274;25253;-74
2024/04/11 01:45:43;;;;;;;16.30;14.40;;;;;;;14.53;81.89;100916.23;86990;278;136406;-72
2024/04/11 01:47:43;;;;;;;14.20;12.80;;;;;;;14.53;81.86;100918.67;86957;281;22653;-72
2024/04/11 01:49:44;;;;;;;19.20;13.50;;;;;;;14.52;80.87;100915.98;86749;271;136562;-75
2024/04/11 01:51:45;;;;;;;17.60;13.40;;;;;;;14.53;80.33;100917.31;86788;274;22911;-74
2024/04/11 01:53:45;;;;;;;15.60;13.20;;;;;;;14.54;79.88;100918.14;86859;281;137641;-73
2024/04/11 01:55:47;;;;;;;15.40;13.40;;;;;;;14.57;79.68;100919.66;87100;272;22594;-73
2024/04/11 01:57:48;;;;;;;16.90;14.20;;;;;;;14.58;79.32;100914.10;87007;274;136635;-73
2024/04/11 01:59:53;;;;;;;15.30;13.80;;;;;;;14.59;79.61;100916.70;87142;277;25188;-74
2024/04/11 02:01:54;;;;;;;19.90;17.90;;;;;;;14.58;79.08;100915.55;86993;280;135627;-73
2024/04/11 02:03:55;;;;;;;16.00;13.20;;;;;;;14.58;80.10;100915.55;87084;272;25220;-73
2024/04/11 02:05:57;;;;;;;15.30;12.60;;;;;;;14.60;79.37;100915.17;86996;281;136309;-74
2024/04/11 02:07:57;;;;;;;15.50;14.00;;;;;;;14.63;78.43;100915.89;87153;270;24150;-73
2024/04/11 02:09:58;;;;;;;16.00;13.70;;;;;;;14.65;78.90;100916.11;87063;264;137289;-74
2024/04/11 02:11:59;;;;;;;14.40;13.00;;;;;;;14.66;79.02;100914.05;87163;273;25189;-74
2024/04/11 02:14:00;;;;;;;14.90;13.30;;;;;;;14.67;78.90;100918.54;86968;274;136081;-73
2024/04/11 02:16:01;;;;;;;14.30;13.00;;;;;;;14.66;79.14;100924.36;87113;281;22580;-73
2024/04/11 02:18:02;;;;;;;16.10;14.10;;;;;;;14.65;79.96;100929.35;86970;273;137364;-73
2024/04/11 02:20:10;;;;;;;14.70;13.60;;;;;;;14.62;81.87;100924.60;87050;269;136322;-72
2024/04/11 02:22:11;;;;;;;16.80;14.60;;;;;;;14.54;83.03;100918.73;87184;270;24375;-75
2024/04/11 02:24:16;;;;;;;19.60;14.10;;;;;;;14.47;83.21;100926.11;87222;274;135978;-73
2024/04/11 02:26:16;;;;;;;16.10;13.90;;;;;;;14.40;84.09;100923.40;87546;270;22625;-74
2024/04/11 02:28:19;;;;;;;14.70;13.30;;;;;;;14.35;84.53;100918.79;87216;271;138280;-69
2024/04/11 02:30:20;;;;;;;14.50;13.10;;;;;;;14.30;85.31;100919.60;87319;262;23998;-74
2024/04/11 02:32:21;;;;;;;15.50;14.00;;;;;;;14.25;84.74;100921.64;87210;278;138989;-74
2024/04/11 02:34:25;;;;;;;16.40;14.40;;;;;;;14.24;85.33;100924.67;87241;271;22562;-74
2024/04/11 02:36:29;;;;;;;24.80;14.50;;;;;;;14.21;86.29;100925.66;87162;271;136875;-74
2024/04/11 02:38:30;;;;;;;16.20;13.30;;;;;;;14.19;86.57;100927.21;87362;270;22716;-75
2024/04/11 02:40:31;;;;;;;15.10;13.40;;;;;;;14.16;86.88;100927.98;87259;270;138669;-74
2024/04/11 02:42:33;;;;;;;16.00;14.20;;;;;;;14.12;87.70;100926.93;87293;270;25076;-75
2024/04/11 02:44:34;;;;;;;15.10;13.70;;;;;;;14.05;88.87;100927.38;87139;271;136222;-75
2024/04/11 02:46:35;;;;;;;15.60;14.20;;;;;;;13.98;89.58;100924.98;87317;269;25332;-73
2024/04/11 02:48:37;;;;;;;15.70;14.30;;;;;;;13.91;89.96;100920.64;87755;273;137774;-75
2024/04/11 02:50:38;;;;;;;16.30;14.70;;;;;;;13.87;89.93;100928.50;87970;278;22576;-74
2024/04/11 02:52:40;;;;;;;15.70;14.10;;;;;;;13.83;90.25;100927.15;88055;277;136775;-74
2024/04/11 02:54:42;;;;;;;15.40;13.50;;;;;;;13.81;89.88;100925.91;89127;269;22550;-72
2024/04/11 02:56:58;;;;;;;16.00;13.80;;;;;;;13.82;90.07;100930.98;89819;266;137389;-72
2024/04/11 02:59:00;;;;;;;22.00;14.80;;;;;;;13.81;90.58;100934.48;89279;273;22711;-73
2024/04/11 03:01:04;;;;;;;19.20;14.10;;;;;;;13.79;90.98;100933.05;89226;267;141049;-73
2024/04/11 03:03:07;;;;;;;15.60;14.10;;;;;;;13.75;91.39;100935.38;89057;278;24023;-74
2024/04/11 03:05:08;;;;;;;15.80;14.20;;;;;;;13.70;91.69;100943.34;87688;267;138508;-75
2024/04/11 03:07:09;;;;;;;15.60;13.90;;;;;;;13.66;92.09;100940.38;87532;273;22573;-74
2024/04/11 03:09:10;;;;;;;15.50;14.10;;;;;;;13.62;92.51;100943.42;87511;273;136940;-75
2024/04/11 03:11:11;;;;;;;17.60;14.30;;;;;;;13.59;92.67;100943.81;87422;278;22581;-74
2024/04/11 03:13:12;;;;;;;20.30;14.10;;;;;;;13.55;93.12;100940.12;87190;278;137313;-76
2024/04/11 03:15:13;;;;;;;17.80;13.60;;;;;;;13.55;93.12;100942.26;87434;270;22892;-75
2024/04/11 03:17:13;;;;;;;15.60;14.10;;;;;;;13.57;93.49;100943.30;87258;270;137299;-74
2024/04/11 03:19:15;;;;;;;15.40;13.90;;;;;;;13.59;93.69;100938.63;87401;270;22571;-78
2024/04/11 03:21:16;;;;;;;15.40;13.70;;;;;;;13.60;93.67;100939.92;87273;270;136969;-76
2024/04/11 03:23:16;;;;;;;18.70;14.70;;;;;;;13.63;92.98;100941.34;87361;271;22632;-73
2024/04/11 03:25:17;;;;;;;18.90;15.60;;;;;;;13.67;93.33;100940.27;87252;270;137006;-80
2024/04/11 03:27:18;;;;;;;16.10;14.50;;;;;;;13.67;93.72;100940.83;87350;273;22586;-75
2024/04/11 03:29:19;;;;;;;15.10;13.70;;;;;;;13.67;93.26;100944.38;87330;277;138846;-73
2024/04/11 03:31:21;;;;;;;15.90;14.40;;;;;;;13.71;92.79;100943.13;87342;271;24219;-78
2024/04/11 03:33:22;;;;;;;21.30;16.50;;;;;;;13.77;92.81;100942.92;87287;273;136820;-74
2024/04/11 03:35:23;;;;;;;20.00;16.20;;;;;;;13.82;93.52;100948.70;87447;266;24114;-75
2024/04/11 03:37:23;;;;;;;20.80;14.30;;;;;;;13.87;93.17;100951.66;87260;266;137330;-78
2024/04/11 03:39:25;;;;;;;31.80;15.50;;;;;;;13.93;92.07;100955.50;87231;276;22554;-73
2024/04/11 03:41:26;;;;;;;30.50;15.20;;;;;;;14.01;91.89;100956.55;87388;270;137064;-73
2024/04/11 03:43:27;;;;;;;12.90;10.40;;;;;;;14.07;90.99;100961.77;87230;270;22583;-71
2024/04/11 03:45:30;;;;;;;23.60;12.60;;;;;;;14.17;89.24;100963.23;87066;271;137406;-74
2024/04/11 03:47:37;;;;;;;13.80;11.20;;;;;;;14.30;88.67;100960.98;87170;271;25099;-78
2024/04/11 03:49:39;;;;;;;17.90;11.40;;;;;;;14.49;87.39;100966.78;87385;270;136834;-77
2024/04/11 03:51:41;;;;;;;13.20;10.80;;;;;;;14.77;86.96;100965.85;87531;274;22570;-73
2024/04/11 03:53:43;;;;;;;12.10;10.90;;;;;;;15.11;85.65;100969.43;87290;274;137066;-75
2024/04/11 03:55:44;;;;;;;17.90;11.40;;;;;;;15.43;83.66;100973.46;87463;269;25186;-75
2024/04/11 03:57:44;;;;;;;11.40;10.20;;;;;;;15.70;81.63;100979.20;87264;268;136227;-72
2024/04/11 03:59:45;;;;;;;12.00;10.80;;;;;;;15.97;79.88;100980.23;87523;266;22543;-71
2024/04/11 04:01:47;;;;;;;10.70;9.60;;;;;;;16.29;79.23;100983.13;87512;269;136382;-71
2024/04/11 04:03:49;;;;;;;10.90;8.80;;;;;;;16.63;77.21;100982.86;87254;274;24133;-74
2024/04/11 04:05:51;;;;;;;9.10;8.20;;;;;;;16.99;74.24;100984.59;87452;277;137019;-72
2024/04/11 04:07:52;;;;;;;11.50;8.40;;;;;;;17.27;72.19;100987.89;87459;274;22567;-70
2024/04/11 04:09:53;;;;;;;8.80;7.10;;;;;;;17.50;70.55;100989.21;87362;274;135652;-72
2024/04/11 04:11:54;;;;;;;9.40;7.00;;;;;;;17.79;68.83;100996.06;87451;271;22576;-73
2024/04/11 04:13:57;;;;;;;7.20;6.50;;;;;;;18.17;66.67;100992.25;87463;273;136698;-72
2024/04/11 04:15:58;;;;;;;8.90;6.40;;;;;;;18.57;65.23;100992.95;87587;274;22563;-76
2024/04/11 04:17:58;;;;;;;9.20;6.20;;;;;;;18.99;64.39;100995.05;87675;271;135973;-76
2024/04/11 04:20:00;;;;;;;6.10;5.60;;;;;;;19.48;61.42;100993.94;87934;266;22644;-82
2024/04/11 04:22:01;;;;;;;8.00;6.80;;;;;;;19.94;58.99;100992.71;87537;268;135741;-72
2024/04/11 04:24:05;;;;;;;8.70;6.00;;;;;;;20.32;57.12;100993.86;88164;278;22559;-75
2024/04/11 04:26:08;;;;;;;12.10;6.70;;;;;;;20.62;55.46;100988.88;87571;272;22560;-78
2024/04/11 04:28:08;;;;;;;8.50;5.90;;;;;;;20.87;54.93;100992.26;89880;262;138388;-76
2024/04/11 04:30:11;;;;;;;11.80;6.80;;;;;;;21.13;54.49;100992.54;87758;269;22544;-76
2024/04/11 04:32:14;;;;;;;15.70;5.90;;;;;;;21.33;54.49;100991.77;87741;270;138245;-74
2024/04/11 04:34:15;;;;;;;7.70;6.00;;;;;;;21.52;54.19;100994.07;87780;266;24081;-77
2024/04/11 04:36:19;;;;;;;10.70;6.30;;;;;;;21.63;53.64;100995.06;87552;270;136413;-76
2024/04/11 04:38:20;;;;;;;7.20;5.50;;;;;;;21.68;53.93;101000.31;87730;278;22590;-77
2024/04/11 04:40:21;;;;;;;6.40;5.80;;;;;;;21.75;53.44;101004.27;87480;271;137096;-78
2024/04/11 04:42:23;;;;;;;6.80;5.80;;;;;;;21.77;53.29;101011.95;87545;270;22647;-77
2024/04/11 04:44:23;;;;;;;10.90;6.50;;;;;;;21.73;53.08;101014.66;87300;271;137215;-74
2024/04/11 04:46:26;;;;;;;10.80;6.00;;;;;;;21.67;53.16;101021.29;87298;274;25068;-77
2024/04/11 04:48:27;;;;;;;6.10;5.60;;;;;;;21.62;53.01;101023.48;87106;271;136428;-75
2024/04/11 04:50:28;;;;;;;10.40;6.20;;;;;;;21.56;53.17;101017.84;87500;279;22567;-74
2024/04/11 04:52:29;;;;;;;6.20;5.50;;;;;;;21.50;53.39;101021.17;87016;275;136448;-75
2024/04/11 04:54:30;;;;;;;6.20;5.60;;;;;;;21.49;53.16;101022.66;87130;270;22537;-76
2024/04/11 04:56:34;;;;;;;7.50;5.90;;;;;;;21.48;53.23;101028.11;87080;271;137642;-74
2024/04/11 04:58:36;;;;;;;7.00;6.20;;;;;;;21.52;52.94;101033.19;87517;273;22658;-76
2024/04/11 05:00:37;;;;;;;6.00;5.40;;;;;;;21.57;52.75;101035.00;89132;266;136603;-77
2024/04/11 05:02:39;;;;;;;7.80;6.00;;;;;;;21.60;52.83;101038.64;87701;270;25201;-79
2024/04/11 05:04:40;;;;;;;5.70;5.30;;;;;;;21.68;52.78;101039.53;87421;276;136127;-76
2024/04/11 05:06:42;;;;;;;6.70;6.20;;;;;;;21.69;51.78;101036.46;87714;273;22580;-76
2024/04/11 05:08:46;;;;;;;8.70;6.20;;;;;;;21.59;52.29;101038.63;87558;268;135741;-77
2024/04/11 05:10:53;;;;;;;6.10;5.60;;;;;;;21.61;52.80;101039.20;87468;280;22567;-76
2024/04/11 05:12:59;;;;;;;6.30;5.70;;;;;;;21.80;52.63;101040.67;87312;271;136562;-76
2024/04/11 05:15:12;;;;;;;6.60;6.10;;;;;;;22.01;52.13;101041.11;87892;267;23938;-72
2024/04/11 05:17:13;;;;;;;6.30;5.80;;;;;;;22.13;50.93;101042.98;86966;268;137775;-80
2024/04/11 05:19:15;;;;;;;6.90;6.20;;;;;;;22.11;50.65;101048.10;87378;270;25644;-72
2024/04/11 05:21:18;;;;;;;8.20;5.80;;;;;;;22.05;50.97;101042.52;87473;265;135832;-79
2024/04/11 05:23:19;;;;;;;8.70;5.90;;;;;;;22.06;50.93;101042.80;87825;265;25258;-76
2024/04/11 05:25:21;;;;;;;9.30;5.80;;;;;;;22.07;51.02;101043.10;87745;267;136064;-78
2024/04/11 05:27:23;;;;;;;8.30;6.50;;;;;;;22.00;51.23;101039.94;87356;276;23774;-70
2024/04/11 05:29:25;;;;;;;6.20;5.70;;;;;;;21.90;51.83;101042.61;87953;270;136392;-79
2024/04/11 05:31:26;;;;;;;17.10;6.50;;;;;;;21.88;51.73;101043.56;87842;274;22551;-75
2024/04/11 05:33:26;;;;;;;8.30;5.90;;;;;;;21.78;52.16;101043.73;87527;276;136782;-79
2024/04/11 05:35:27;;;;;;;8.30;6.00;;;;;;;21.64;52.82;101043.60;87544;269;22555;-80
2024/04/11 05:37:29;;;;;;;5.80;5.30;;;;;;;21.58;53.36;101044.73;87325;274;136113;-80
2024/04/11 05:39:33;;;;;;;9.90;6.30;;;;;;;21.50;53.47;101044.91;87740;274;23988;-79
2024/04/11 05:41:34;;;;;;;9.40;6.10;;;;;;;21.23;54.45;101045.92;87441;272;137019;-78
2024/04/11 05:43:38;;;;;;;7.60;5.70;;;;;;;20.95;55.48;101049.98;87338;272;25397;-81
2024/04/11 05:45:39;;;;;;;;;;;;;;;20.80;56.44;101046.03;88170;267;136301;-79
2024/04/11 05:47:41;;;;;;;11.30;6.20;;;;;;;20.69;56.81;101052.86;87532;273;25594;-79
2024/04/11 05:49:42;;;;;;;7.90;5.90;;;;;;;20.65;57.45;101048.98;87543;279;136367;-79
2024/04/11 05:51:43;;;;;;;7.30;6.60;;;;;;;20.62;57.58;101046.86;88202;279;22566;-81
2024/04/11 05:53:46;;;;;;;6.90;6.40;;;;;;;20.72;57.96;101050.55;87684;266;136172;-78
2024/04/11 05:55:47;;;;;;;6.80;6.30;;;;;;;20.84;57.95;101046.23;87226;268;24146;-81
2024/04/11 05:57:51;;;;;;;6.60;6.00;;;;;;;20.94;58.01;101049.09;87436;275;136177;-81
2024/04/11 05:59:51;;;;;;;7.60;6.40;;;;;;;21.03;58.10;101050.67;87645;278;22738;-81
2024/04/11 06:01:53;;;;;;;7.60;6.00;;;;;;;21.10;57.60;101053.23;87406;269;138971;-79
2024/04/11 06:03:54;;;;;;;6.40;5.80;;;;;;;21.09;57.69;101059.85;87381;269;22554;-80
2024/04/11 06:05:56;;;;;;;5.70;5.20;;;;;;;21.03;57.85;101058.39;87336;269;137196;-81
2024/04/11 06:07:56;;;;;;;6.80;6.20;;;;;;;21.02;58.31;101064.33;87339;278;23695;-76
2024/04/11 06:10:00;;;;;;;9.00;6.50;;;;;;;21.05;58.38;101064.06;87311;265;135510;-79
2024/04/11 06:12:01;;;;;;;6.50;6.00;;;;;;;21.00;59.20;101066.29;87446;274;22572;-81
2024/04/11 06:14:05;;;;;;;7.30;6.40;;;;;;;21.12;59.38;101069.99;87423;273;22576;-78
2024/04/11 06:16:07;;;;;;;7.20;6.30;;;;;;;21.34;58.64;101064.45;87271;265;136347;-70
2024/04/11 06:18:09;;;;;;;6.80;6.10;;;;;;;21.53;58.41;101071.65;87411;270;25261;-80
2024/04/11 06:20:16;;;;;;;6.60;6.10;;;;;;;21.71;57.28;101071.54;87511;268;138106;-84
2024/04/11 06:22:16;;;;;;;10.10;6.60;;;;;;;21.73;57.58;101072.01;87705;269;23890;-76
2024/04/11 06:24:18;;;;;;;6.20;5.60;;;;;;;21.74;57.30;101074.97;87645;270;136567;-79
2024/04/11 06:26:19;;;;;;;7.60;5.50;;;;;;;21.69;57.25;101079.50;87626;276;22671;-78
2024/04/11 06:28:19;;;;;;;8.40;5.50;;;;;;;21.58;57.84;101075.16;87430;267;136003;-80
2024/04/11 06:30:22;;;;;;;6.90;5.40;;;;;;;21.49;58.48;101073.27;87595;279;22576;-77
2024/04/11 06:32:23;;;;;;;6.60;5.70;;;;;;;21.51;58.56;101078.19;87526;270;136066;-73
2024/04/11 06:34:25;;;;;;;7.00;5.40;;;;;;;21.62;58.83;101079.26;88087;266;22550;-79
2024/04/11 06:36:25;;;;;;;6.40;5.90;;;;;;;21.84;58.20;101079.32;87532;270;136236;-80
2024/04/11 06:38:26;;;;;;;6.50;6.00;;;;;;;22.04;57.51;101086.70;87472;275;22538;-83
2024/04/11 06:40:28;;;;;;;7.30;5.70;;;;;;;22.09;56.08;101090.90;87470;270;136232;-81
2024/04/11 06:42:28;;;;;;;6.10;5.60;;;;;;;21.91;56.34;101092.25;87623;267;23723;-76
2024/04/11 06:44:32;;;;;;;6.50;5.90;;;;;;;21.72;56.97;101091.21;87334;273;136511;-77
2024/04/11 06:46:33;;;;;;;6.10;5.50;;;;;;;21.59;57.77;101091.35;87536;270;26178;-78
2024/04/11 06:48:35;;;;;;;5.80;5.30;;;;;;;21.50;58.14;101094.54;87839;270;136148;-78
2024/04/11 06:50:36;;;;;;;11.00;5.90;;;;;;;21.48;58.67;101096.54;87728;266;23395;-83
2024/04/11 06:52:37;;;;;;;6.20;5.10;;;;;;;21.43;58.63;101096.30;87541;268;136236;-79
2024/04/11 06:54:40;;;;;;;12.60;6.40;;;;;;;21.30;59.00;101098.04;87660;270;22572;-82
2024/04/11 06:56:44;;;;;;;5.30;4.90;;;;;;;21.18;59.50;101100.36;87683;269;136296;-77
2024/04/11 06:58:45;;;;;;;6.80;6.20;;;;;;;21.15;59.59;101105.52;87647;267;25190;-80
2024/04/11 07:00:55;;;;;;;6.50;5.90;;;;;;;20.96;59.95;101105.66;87692;275;135881;-77
2024/04/11 07:02:56;;;;;;;5.70;5.30;;;;;;;20.64;61.87;101103.16;87697;277;22552;-77
2024/04/11 07:05:02;;;;;;;5.80;5.40;;;;;;;20.45;63.28;101101.85;87459;271;138159;-79
2024/04/11 07:07:08;;;;;;;7.20;6.20;;;;;;;20.34;64.63;101105.45;87815;267;22551;-77
2024/04/11 07:09:11;;;;;;;7.90;6.10;;;;;;;20.26;64.84;101110.38;87526;279;136933;-79
2024/04/11 07:11:32;;;;;;;5.70;5.30;;;;;;;20.11;65.53;101116.58;87703;270;22562;-79
2024/04/11 07:13:35;;;;;;;6.00;5.60;;;;;;;19.99;66.21;101112.66;87328;265;137456;-76
2024/04/11 07:15:42;;;;;;;5.60;5.20;;;;;;;19.95;66.89;101116.79;87293;275;22595;-78
2024/04/11 07:17:56;;;;;;;6.50;5.90;;;;;;;19.95;67.42;101113.59;87448;279;138192;-78
2024/04/11 07:19:58;;;;;;;9.30;5.40;;;;;;;19.96;66.90;101116.36;87152;271;24092;-76
2024/04/11 07:21:59;;;;;;;7.00;5.80;;;;;;;19.96;67.71;101114.20;87155;265;135878;-76
2024/04/11 07:24:03;;;;;;;6.00;5.60;;;;;;;19.99;67.63;101112.44;87198;269;22550;-80
2024/04/11 07:26:07;;;;;;;;;;;;;;;20.03;67.18;101111.67;87326;277;24075;-76
2024/04/11 07:28:09;;;;;;;7.40;5.90;;;;;;;20.03;66.83;101117.83;87169;274;124916;-75
2024/04/11 07:30:11;;;;;;;7.20;6.00;;;;;;;20.00;67.56;101116.38;87516;269;23773;-81
2024/04/11 07:32:12;;;;;;;8.20;6.60;;;;;;;19.96;67.85;101117.52;87558;266;135946;-75
2024/04/11 07:34:14;;;;;;;6.30;5.90;;;;;;;19.94;68.38;101117.61;86854;279;793988;-77
2024/04/11 07:36:16;;;;;;;9.10;5.50;;;;;;;19.92;68.58;101120.58;87413;278;136995;-85
2024/04/11 07:38:19;;;;;;;6.80;6.00;;;;;;;19.92;68.99;101122.33;87838;270;23965;-78
2024/04/11 07:40:32;;;;;;;12.10;7.00;;;;;;;19.92;69.37;101124.41;87492;270;137494;-75
2024/04/11 07:42:54;;;;;;;6.80;6.20;;;;;;;19.89;69.61;101121.01;87807;270;22545;-77
2024/04/11 07:44:55;;;;;;;7.60;6.90;;;;;;;19.92;70.03;101119.45;87533;270;136290;-77
2024/04/11 07:46:58;;;;;;;6.80;6.10;;;;;;;19.97;69.92;101121.10;87769;274;24147;-71
2024/04/11 07:49:00;;;;;;;6.30;5.60;;;;;;;20.01;69.86;101125.44;87384;269;136268;-82
2024/04/11 07:51:05;;;;;;;8.60;6.80;;;;;;;20.02;69.57;101128.54;87961;266;22674;-76
2024/04/11 07:53:14;;;;;;;6.30;5.70;;;;;;;19.99;70.36;101127.70;87699;278;137967;-88
2024/04/11 07:55:15;;;;;;;6.50;5.90;;;;;;;20.03;70.50;101131.58;88086;278;22582;-80
2024/04/11 07:57:19;;;;;;;5.80;5.20;;;;;;;20.08;69.79;101132.63;87500;270;136194;-77
2024/04/11 07:59:22;;;;;;;6.10;5.60;;;;;;;20.10;70.34;101131.10;87954;271;24001;-85
2024/04/11 08:01:30;;;;;;;5.90;5.40;;;;;;;20.15;70.82;101136.88;87828;273;136130;-79
2024/04/11 08:03:31;;;;;;;12.90;6.50;;;;;;;20.20;70.81;101131.14;87824;273;24013;-80
2024/04/11 08:05:32;;;;;;;6.20;5.60;;;;;;;20.23;71.02;101132.30;87974;262;137504;-74
2024/04/11 08:07:33;;;;;;;5.70;5.30;;;;;;;20.29;70.72;101134.67;88626;271;22330;-85
2024/04/11 08:09:44;;;;;;;6.30;5.40;;;;;;;20.38;70.33;101130.13;87806;266;136335;-83
2024/04/11 08:11:45;;;;;;;5.30;4.90;;;;;;;20.48;70.52;101132.95;88476;266;24649;-87
2024/04/11 08:13:47;;;;;;;6.50;6.00;;;;;;;20.57;70.16;101131.10;87653;279;135992;-79
2024/04/11 08:15:49;;;;;;;6.20;5.60;;;;;;;20.57;69.70;101132.63;87784;273;22599;-81
2024/04/11 08:17:51;;;;;;;6.10;5.30;;;;;;;20.56;69.84;101132.81;87410;274;136208;-82
2024/04/11 08:19:53;;;;;;;6.10;5.60;;;;;;;20.61;70.35;101136.42;87869;273;24088;-82
2024/04/11 08:21:54;;;;;;;6.80;5.50;;;;;;;20.63;70.62;101135.70;87380;270;137457;-83
2024/04/11 08:23:54;;;;;;;5.20;4.70;;;;;;;20.61;70.79;101131.39;87602;273;25354;-87
2024/04/11 08:25:55;;;;;;;6.90;5.20;;;;;;;20.65;71.00;101133.73;87672;270;136714;-79
2024/04/11 08:27:57;;;;;;;6.20;5.40;;;;;;;20.65;71.08;101134.61;87523;270;22650;-81
2024/04/11 08:29:58;;;;;;;5.20;4.90;;;;;;;20.62;71.50;101136.55;88167;274;137057;-84
2024/04/11 08:32:00;;;;;;;5.60;5.20;;;;;;;20.64;71.43;101134.43;88623;270;22526;-78
2024/04/11 08:34:01;;;;;;;6.70;6.20;;;;;;;20.67;71.28;101136.79;89055;269;136856;-72
2024/04/11 08:36:03;;;;;;;5.60;5.20;;;;;;;20.70;71.01;101132.83;89691;270;22550;-71
2024/04/11 08:38:06;;;;;;;5.10;4.60;;;;;;;20.70;70.97;101137.98;89531;269;23145;-79
2024/04/11 08:40:10;;;;;;;5.50;4.70;;;;;;;20.69;71.15;101138.17;89073;277;135989;-72
2024/04/11 08:42:12;;;;;;;4.80;4.50;;;;;;;20.69;71.15;101136.99;89351;272;23063;-75
2024/04/11 08:44:15;;;;;;;7.50;4.90;;;;;;;20.72;71.34;101137.23;87810;282;136119;-72
2024/04/11 08:46:16;;;;;;;6.30;5.30;;;;;;;20.75;71.05;101137.55;88801;275;22528;-75
2024/04/11 08:48:17;;;;;;;5.60;5.00;;;;;;;20.80;70.85;101138.37;88648;273;136799;-72
2024/04/11 08:50:18;;;;;;;5.70;5.30;;;;;;;20.88;70.83;101137.52;87453;281;25738;-72
2024/04/11 08:52:22;;;;;;;6.10;5.50;;;;;;;20.90;70.94;101137.80;87282;277;137516;-80
2024/04/11 08:54:24;;;;;;;12.00;5.70;;;;;;;20.91;70.67;101142.77;87918;277;25221;-82
2024/04/11 08:56:25;;;;;;;6.10;4.50;;;;;;;20.97;70.44;101144.69;87564;274;136549;-86
2024/04/11 08:58:26;;;;;;;7.00;5.10;;;;;;;21.05;70.69;101143.83;87527;274;24120;-86
2024/04/11 09:00:29;;;;;;;5.10;4.60;;;;;;;21.08;70.63;101144.61;87918;278;136202;-80
2024/04/11 09:02:30;;;;;;;5.90;4.90;;;;;;;21.10;71.17;101145.19;87925;269;22880;-90
2024/04/11 09:04:30;;;;;;;4.90;4.60;;;;;;;21.13;70.52;101144.13;87293;281;137246;-78
2024/04/11 09:06:32;;;;;;;5.10;4.70;;;;;;;21.16;70.30;101140.19;87605;274;25750;-72
2024/04/11 09:08:33;;;;;;;5.90;5.20;;;;;;;21.18;70.19;101145.69;86769;273;135874;-73
2024/04/11 09:10:35;;;;;;;6.10;4.80;;;;;;;21.19;69.89;101148.48;86725;275;22583;-72
2024/04/11 09:12:36;;;;;;;6.40;5.10;;;;;;;21.16;70.18;101143.31;86821;279;135863;-72
2024/04/11 09:14:37;;;;;;;4.50;4.20;;;;;;;21.12;70.40;101146.27;86781;275;22693;-78
2024/04/11 09:16:38;;;;;;;5.00;4.60;;;;;;;21.12;70.28;101144.05;86771;274;135872;-75
2024/04/11 09:18:38;;;;;;;4.80;4.40;;;;;;;21.17;70.25;101144.31;86878;275;25787;-73
2024/04/11 09:20:39;;;;;;;5.20;4.70;;;;;;;21.23;70.41;101145.77;86751;269;136250;-73
2024/04/11 09:22:50;;;;;;;4.30;4.00;;;;;;;21.29;70.07;101148.24;86922;281;22572;-78
2024/04/11 09:24:51;;;;;;;5.00;4.60;;;;;;;21.29;70.05;101149.11;86823;274;136530;-73